Time;durP1;ratioP1;P1;durP2;ratioP2;P2;SDS_P1;SDS_P2;PMS_P1;PMS_P2;Temp;Humidity;BMP_temperature;BMP_pressure;BME280_temperature;BME280_humidity;BME280_pressure;Samples;Min_cycle;Max_cycle;Signal;HPM_P1;HPM_P2
2022/09/23 00:00:31;;;;;;;2.72;1.45;;;22.10;52.70;;;;;;10358302;28;20076;-36
2022/09/23 00:05:33;;;;;;;4.38;1.58;;;22.10;52.80;;;;;;10357718;28;20125;-34
2022/09/23 00:10:36;;;;;;;;;;;22.10;52.80;;;;;;10359502;28;20073;-34
2022/09/23 00:15:40;;;;;;;3.80;1.75;;;22.10;52.90;;;;;;10356297;28;19949;-35
2022/09/23 00:20:42;;;;;;;2.00;1.20;;;22.10;53.00;;;;;;10354769;28;20141;-35
2022/09/23 00:25:44;;;;;;;2.42;1.27;;;22.10;53.00;;;;;;10357008;28;20077;-35
2022/09/23 00:30:47;;;;;;;4.53;1.70;;;22.10;53.00;;;;;;10358186;28;20073;-35
2022/09/23 00:35:49;;;;;;;1.90;1.27;;;22.00;53.00;;;;;;10352866;28;20499;-34
2022/09/23 00:40:51;;;;;;;2.00;1.50;;;22.00;53.10;;;;;;10354220;28;20148;-34
2022/09/23 00:45:54;;;;;;;1.65;1.42;;;22.00;53.10;;;;;;10354390;28;20069;-34
2022/09/23 00:50:56;;;;;;;4.32;1.52;;;22.00;53.10;;;;;;10355700;28;20054;-34
2022/09/23 00:56:06;;;;;;;1.98;1.30;;;22.00;53.10;;;;;;10355446;28;20520;-34
2022/09/23 01:01:09;;;;;;;2.40;1.30;;;22.00;53.10;;;;;;10357018;28;20054;-34
2022/09/23 01:06:11;;;;;;;2.88;1.25;;;21.90;53.20;;;;;;10347552;28;20458;-33
2022/09/23 01:11:28;;;;;;;1.42;1.17;;;21.90;53.20;;;;;;10357377;28;20459;-36
2022/09/23 01:16:36;;;;;;;2.85;1.33;;;21.80;53.20;;;;;;10355823;28;20058;-35
2022/09/23 01:21:52;;;;;;;1.52;1.20;;;21.90;53.20;;;;;;10355606;28;20542;-33
2022/09/23 01:27:12;;;;;;;2.63;1.08;;;21.90;53.40;;;;;;10355825;28;20208;-35
2022/09/23 01:32:27;;;;;;;1.75;1.05;;;21.90;53.30;;;;;;10353656;28;20052;-34
2022/09/23 01:37:36;;;;;;;2.40;1.20;;;21.80;53.30;;;;;;10354654;28;20626;-34
2022/09/23 01:42:43;;;;;;;2.35;1.40;;;21.80;53.40;;;;;;10356301;28;20547;-35
2022/09/23 01:47:51;;;;;;;3.75;1.27;;;21.80;53.40;;;;;;10353874;28;20132;-34
2022/09/23 01:52:57;;;;;;;1.42;0.95;;;21.80;53.40;;;;;;10354630;28;20400;-35
2022/09/23 01:58:04;;;;;;;2.08;1.13;;;21.80;53.40;;;;;;10354826;28;20512;-34
2022/09/23 02:03:12;;;;;;;1.60;1.10;;;21.70;53.40;;;;;;10353918;28;20057;-34
2022/09/23 02:08:17;;;;;;;2.83;1.10;;;21.70;53.40;;;;;;10354774;28;20034;-35
2022/09/23 02:13:25;;;;;;;1.42;1.30;;;21.70;53.40;;;;;;10354673;28;20131;-35
2022/09/23 02:18:33;;;;;;;1.67;1.08;;;21.70;53.50;;;;;;10352389;28;20129;-35
2022/09/23 02:23:42;;;;;;;1.77;1.13;;;21.70;53.50;;;;;;10353548;28;20084;-33
2022/09/23 02:28:51;;;;;;;1.52;1.05;;;21.70;53.50;;;;;;10355062;28;20131;-34
2022/09/23 02:33:56;;;;;;;1.88;1.05;;;21.60;53.50;;;;;;10352636;28;20050;-34
2022/09/23 02:39:03;;;;;;;1.10;1.00;;;21.60;53.50;;;;;;10352105;28;20050;-35
2022/09/23 02:44:08;;;;;;;1.67;1.10;;;21.60;53.50;;;;;;10353363;28;20085;-34
2022/09/23 02:49:16;;;;;;;1.95;1.05;;;21.60;53.60;;;;;;10353311;28;20045;-35
2022/09/23 02:54:21;;;;;;;1.58;1.20;;;21.60;53.60;;;;;;10352794;28;20469;-35
2022/09/23 02:59:24;;;;;;;3.40;1.40;;;21.60;53.60;;;;;;10353321;28;20070;-35
2022/09/23 03:04:35;;;;;;;1.38;0.85;;;21.60;53.70;;;;;;10352973;28;20487;-35
2022/09/23 03:09:43;;;;;;;2.58;1.08;;;21.50;53.60;;;;;;10353804;28;20496;-40
2022/09/23 03:14:53;;;;;;;1.65;0.90;;;21.50;53.70;;;;;;10352833;28;20077;-34
2022/09/23 03:20:01;;;;;;;1.58;1.10;;;21.60;53.70;;;;;;10357981;28;20467;-34
2022/09/23 03:25:08;;;;;;;3.22;1.08;;;21.50;53.70;;;;;;10360621;28;20123;-36
2022/09/23 03:30:11;;;;;;;2.70;1.20;;;21.40;53.70;;;;;;10359548;28;20048;-35
2022/09/23 03:35:15;;;;;;;2.30;0.90;;;21.50;53.70;;;;;;10360477;28;20053;-36
2022/09/23 03:40:21;;;;;;;1.35;1.05;;;21.50;53.70;;;;;;10359930;28;20149;-36
2022/09/23 03:45:26;;;;;;;1.60;1.00;;;21.50;53.70;;;;;;10359612;28;20145;-35
2022/09/23 03:50:29;;;;;;;2.03;1.15;;;21.50;53.70;;;;;;10360362;28;20153;-35
2022/09/23 03:55:32;;;;;;;4.45;1.30;;;21.40;53.70;;;;;;10358922;28;20343;-34
2022/09/23 04:00:34;;;;;;;1.45;0.90;;;21.40;53.90;;;;;;10358671;28;20050;-34
2022/09/23 04:05:38;;;;;;;1.88;1.27;;;21.40;53.90;;;;;;10360259;28;20050;-35
2022/09/23 04:10:41;;;;;;;1.27;1.17;;;21.40;53.70;;;;;;10358367;28;20037;-35
2022/09/23 04:15:43;;;;;;;2.47;1.20;;;21.40;53.90;;;;;;10357231;28;20057;-34
2022/09/23 04:20:46;;;;;;;1.90;1.08;;;21.40;53.90;;;;;;10355040;28;20139;-35
2022/09/23 04:25:48;;;;;;;1.73;0.90;;;21.40;53.90;;;;;;10355450;28;20050;-34
2022/09/23 04:30:50;;;;;;;1.63;1.30;;;21.40;53.90;;;;;;10351210;28;20085;-35
2022/09/23 04:35:55;;;;;;;1.48;0.95;;;21.30;53.90;;;;;;10353027;28;20546;-35
2022/09/23 04:40:57;;;;;;;1.77;0.93;;;21.30;54.00;;;;;;10355512;28;20137;-35
2022/09/23 04:46:00;;;;;;;1.67;1.15;;;21.30;54.00;;;;;;10348004;28;20410;-34
2022/09/23 04:51:04;;;;;;;1.70;1.60;;;21.30;54.10;;;;;;10351650;28;20045;-34
2022/09/23 04:56:10;;;;;;;1.55;1.10;;;21.30;54.10;;;;;;10352582;28;20137;-35
2022/09/23 05:01:13;;;;;;;1.35;1.02;;;21.30;54.10;;;;;;10352741;28;20050;-35
2022/09/23 05:06:16;;;;;;;1.85;1.30;;;21.20;54.20;;;;;;10348638;28;20060;-34
2022/09/23 05:11:18;;;;;;;2.15;1.10;;;21.20;54.30;;;;;;10352714;28;20042;-35
2022/09/23 05:16:21;;;;;;;;;;;21.20;54.40;;;;;;10352953;28;20077;-36
2022/09/23 05:21:27;;;;;;;2.70;1.23;;;21.10;54.40;;;;;;10354964;28;20027;-35
2022/09/23 05:26:31;;;;;;;1.75;1.50;;;21.10;54.70;;;;;;10352772;28;20053;-35
2022/09/23 05:31:33;;;;;;;2.15;1.85;;;21.10;54.60;;;;;;10354764;28;20057;-35
2022/09/23 05:36:37;;;;;;;2.00;1.75;;;21.10;54.90;;;;;;10351176;28;20145;-35
2022/09/23 05:41:39;;;;;;;3.22;1.30;;;21.00;54.80;;;;;;10352885;28;20177;-34
2022/09/23 05:46:40;;;;;;;2.10;1.27;;;21.10;54.60;;;;;;10353826;28;20100;-35
2022/09/23 05:51:44;;;;;;;1.70;1.50;;;21.10;54.60;;;;;;10352278;28;20169;-36
2022/09/23 05:56:46;;;;;;;2.35;1.67;;;21.10;54.80;;;;;;10349710;28;20064;-35
2022/09/23 06:01:47;;;;;;;2.33;1.80;;;21.00;55.10;;;;;;10350504;28;20137;-35
2022/09/23 06:06:51;;;;;;;4.18;1.35;;;21.00;54.90;;;;;;10351493;28;20053;-34
2022/09/23 06:11:53;;;;;;;2.55;1.60;;;21.10;54.60;;;;;;10355418;28;20038;-34
2022/09/23 06:16:55;;;;;;;;;;;21.10;54.90;;;;;;10353850;28;20066;-35
2022/09/23 06:21:58;;;;;;;3.78;1.35;;;21.10;54.70;;;;;;10352829;28;20010;-35
2022/09/23 06:27:01;;;;;;;2.10;1.42;;;21.10;54.90;;;;;;10346437;28;20040;-35
2022/09/23 06:32:03;;;;;;;2.90;1.70;;;21.20;54.80;;;;;;10351716;28;20050;-34
2022/09/23 06:37:07;;;;;;;3.63;1.65;;;21.20;54.80;;;;;;10353215;28;20569;-35
2022/09/23 06:42:08;;;;;;;4.22;1.63;;;21.20;55.20;;;;;;10348744;28;20081;-34
2022/09/23 06:47:10;;;;;;;6.00;2.25;;;21.10;55.00;;;;;;10352981;28;20145;-34
2022/09/23 06:52:16;;;;;;;6.70;2.20;;;21.10;54.90;;;;;;10353210;28;20050;-34
2022/09/23 06:57:18;;;;;;;4.90;1.70;;;21.20;54.90;;;;;;10341753;28;20054;-35
2022/09/23 07:02:20;;;;;;;;;;;21.10;54.80;;;;;;10361049;28;20057;-35
2022/09/23 07:07:23;;;;;;;2.40;1.50;;;21.10;54.70;;;;;;10360130;28;19925;-35
2022/09/23 07:12:25;;;;;;;3.28;1.40;;;21.10;54.70;;;;;;10356987;28;20057;-36
2022/09/23 07:17:27;;;;;;;3.70;2.33;;;21.20;54.70;;;;;;10358575;28;20576;-34
2022/09/23 07:22:30;;;;;;;2.03;1.40;;;21.00;55.10;;;;;;10359340;28;20153;-34
2022/09/23 07:27:32;;;;;;;4.95;2.60;;;20.90;55.40;;;;;;10359525;28;20128;-35
2022/09/23 07:32:34;;;;;;;3.58;2.10;;;21.00;55.00;;;;;;10357363;28;20050;-35
2022/09/23 07:37:38;;;;;;;2.92;1.88;;;21.10;54.80;;;;;;10358464;28;20479;-35
2022/09/23 07:42:40;;;;;;;4.50;1.90;;;21.20;54.70;;;;;;10358461;28;20136;-35
2022/09/23 07:47:42;;;;;;;;;;;21.30;54.60;;;;;;10357132;28;20522;-35
2022/09/23 07:52:45;;;;;;;3.50;1.80;;;21.30;54.80;;;;;;10358210;28;19936;-34
2022/09/23 07:57:47;;;;;;;3.00;1.95;;;21.20;54.80;;;;;;10356186;28;20550;-35
2022/09/23 08:02:50;;;;;;;4.25;1.77;;;21.20;54.80;;;;;;10357226;28;20053;-35
2022/09/23 08:07:54;;;;;;;3.35;1.90;;;21.30;54.80;;;;;;10357567;28;20041;-35
2022/09/23 08:12:55;;;;;;;5.07;1.92;;;21.30;54.80;;;;;;10357071;28;20253;-35
2022/09/23 08:18:00;;;;;;;5.18;2.15;;;21.30;54.80;;;;;;10356433;28;20053;-36
2022/09/23 08:23:03;;;;;;;4.80;1.73;;;21.30;54.80;;;;;;10356563;28;20558;-34
2022/09/23 08:28:05;;;;;;;3.63;1.98;;;21.20;55.10;;;;;;10356325;28;20415;-35
2022/09/23 08:33:06;;;;;;;8.68;2.70;;;21.20;55.30;;;;;;10355139;28;20045;-35
2022/09/23 08:38:10;;;;;;;4.78;2.10;;;21.00;56.20;;;;;;10355712;28;20054;-35
2022/09/23 08:43:25;;;;;;;5.78;1.88;;;21.00;55.60;;;;;;10354958;28;20506;-35
2022/09/23 08:48:29;;;;;;;3.17;1.80;;;21.20;55.50;;;;;;10356599;28;20045;-34
2022/09/23 08:53:34;;;;;;;8.70;4.13;;;21.20;55.30;;;;;;10355219;28;20085;-34
2022/09/23 08:58:52;;;;;;;2.55;1.70;;;21.10;56.60;;;;;;10355362;28;20502;-34
2022/09/23 09:03:56;;;;;;;4.03;1.92;;;21.30;55.10;;;;;;10354331;28;20140;-35
2022/09/23 09:09:02;;;;;;;4.72;1.95;;;21.40;55.00;;;;;;10355926;28;20056;-35
2022/09/23 09:14:18;;;;;;;5.05;2.13;;;21.40;55.10;;;;;;10355130;28;20489;-35
2022/09/23 09:19:31;;;;;;;5.47;2.08;;;21.40;55.10;;;;;;10353410;28;20050;-35
2022/09/23 09:24:34;;;;;;;;;;;21.20;55.50;;;;;;10354540;28;20046;-34
2022/09/23 09:29:40;;;;;;;2.28;1.40;;;21.50;55.00;;;;;;10353396;28;20014;-34
2022/09/23 09:34:52;;;;;;;12.38;3.85;;;21.50;55.10;;;;;;10352826;28;20232;-33
2022/09/23 09:39:56;;;;;;;8.15;5.05;;;21.00;56.20;;;;;;10355319;28;20164;-34
2022/09/23 09:45:01;;;;;;;3.88;2.28;;;20.00;59.50;;;;;;10352838;28;20144;-33
2022/09/23 09:50:09;;;;;;;4.20;1.80;;;20.30;58.70;;;;;;10354292;28;21204;-35
2022/09/23 09:55:26;;;;;;;7.47;2.95;;;20.10;59.10;;;;;;10354089;28;20439;-34
2022/09/23 10:00:43;;;;;;;5.85;3.08;;;20.90;57.50;;;;;;10353034;28;20129;-37
2022/09/23 10:05:51;;;;;;;6.90;4.13;;;20.10;60.60;;;;;;10352151;28;20415;-36
2022/09/23 10:11:01;;;;;;;10.10;4.88;;;20.30;59.60;;;;;;10354090;28;20521;-35
2022/09/23 10:16:04;;;;;;;6.10;2.17;;;19.50;62.00;;;;;;10351577;28;20740;-35
2022/09/23 10:21:08;;;;;;;6.18;2.45;;;19.70;60.40;;;;;;10351963;28;20434;-35
2022/09/23 10:26:16;;;;;;;3.38;1.73;;;19.70;60.90;;;;;;10353090;28;20092;-35
2022/09/23 10:31:24;;;;;;;2.88;1.48;;;21.00;56.90;;;;;;10359813;28;20037;-35
2022/09/23 10:36:27;;;;;;;5.10;1.42;;;20.80;57.60;;;;;;10359383;28;20157;-34
2022/09/23 10:47:04;;;;;;;2.08;1.50;;;21.50;55.50;;;;;;10360073;28;20093;-36
2022/09/23 10:52:30;;;;;;;5.20;2.30;;;21.50;55.70;;;;;;10360316;28;20053;-34
2022/09/23 10:57:52;;;;;;;5.00;3.55;;;21.30;56.00;;;;;;10360501;28;20716;-36
2022/09/23 11:03:09;;;;;;;3.87;2.00;;;20.70;59.40;;;;;;10359950;28;20053;-40
2022/09/23 11:08:30;;;;;;;6.95;4.07;;;21.10;58.30;;;;;;10360700;28;20449;-35
2022/09/23 11:13:47;;;;;;;3.78;2.30;;;21.10;60.10;;;;;;10360615;28;20081;-35
2022/09/23 11:19:09;;;;;;;7.38;4.50;;;20.50;58.70;;;;;;10360610;28;20410;-34
2022/09/23 11:24:49;;;;;;;3.60;2.25;;;20.60;59.60;;;;;;10359869;28;20465;-35
2022/09/23 11:30:12;;;;;;;4.55;2.85;;;20.40;59.80;;;;;;10356688;28;20046;-34
2022/09/23 11:35:19;;;;;;;5.22;3.00;;;21.30;58.40;;;;;;10359218;28;20422;-35
2022/09/23 11:40:27;;;;;;;6.38;3.17;;;20.80;59.50;;;;;;10357842;28;20168;-34
2022/09/23 11:45:34;;;;;;;8.32;3.17;;;20.80;61.20;;;;;;10357177;28;20046;-34
2022/09/23 11:50:39;;;;;;;6.63;2.67;;;20.30;63.30;;;;;;10358682;28;20139;-36
2022/09/23 11:55:47;;;;;;;4.30;3.05;;;21.10;61.90;;;;;;10356820;28;20676;-34
2022/09/23 12:00:57;;;;;;;4.78;2.33;;;20.40;61.70;;;;;;10358977;28;20463;-35
2022/09/23 12:06:06;;;;;;;7.97;2.95;;;21.50;60.40;;;;;;10357487;28;20072;-33
2022/09/23 12:11:21;;;;;;;5.63;4.10;;;21.30;59.00;;;;;;10357346;28;20687;-35
2022/09/23 12:17:06;;;;;;;4.30;3.90;;;20.80;63.20;;;;;;10357092;28;20093;-34
2022/09/23 12:22:26;;;;;;;9.85;5.90;;;20.80;60.60;;;;;;10356773;28;20137;-34
2022/09/23 12:27:36;;;;;;;11.60;5.22;;;20.90;65.10;;;;;;10354956;28;20082;-35
2022/09/23 12:32:40;;;;;;;15.00;6.50;;;21.10;65.00;;;;;;10356167;28;20487;-34
2022/09/23 12:37:42;;;;;;;10.35;3.80;;;20.10;69.20;;;;;;10356830;28;20053;-32
2022/09/23 12:42:46;;;;;;;7.80;2.78;;;20.50;63.20;;;;;;10356368;28;20054;-36
2022/09/23 12:47:50;;;;;;;17.60;6.05;;;20.70;64.50;;;;;;10355836;28;20125;-37
2022/09/23 12:52:52;;;;;;;4.70;3.83;;;20.80;65.50;;;;;;10354510;28;20137;-34
2022/09/23 12:57:53;;;;;;;6.75;3.38;;;21.50;62.10;;;;;;10353140;28;20073;-34
2022/09/23 13:08:22;;;;;;;5.85;3.90;;;20.40;67.40;;;;;;10353341;28;20129;-35
2022/09/23 13:13:30;;;;;;;10.52;5.53;;;20.90;65.50;;;;;;10353807;28;20522;-35
2022/09/23 13:18:58;;;;;;;8.60;5.10;;;20.90;64.70;;;;;;10352037;28;20053;-34
2022/09/23 13:24:35;;;;;;;12.38;5.15;;;20.70;66.70;;;;;;10353111;28;20088;-34
2022/09/23 13:29:41;;;;;;;8.98;5.13;;;20.70;66.50;;;;;;10349342;28;20054;-34
2022/09/23 13:34:55;;;;;;;12.85;7.72;;;20.30;68.70;;;;;;10353455;28;20462;-34
2022/09/23 13:40:08;;;;;;;5.22;3.58;;;20.30;70.20;;;;;;10353140;28;20120;-34
2022/09/23 13:45:16;;;;;;;9.60;4.65;;;20.70;66.60;;;;;;10351957;28;20054;-34
2022/09/23 13:50:21;;;;;;;10.20;5.82;;;20.40;66.70;;;;;;10349601;28;20046;-33
2022/09/23 13:55:29;;;;;;;14.88;8.35;;;20.50;70.20;;;;;;10350989;28;20167;-34
2022/09/23 14:00:36;;;;;;;6.35;3.28;;;20.70;70.10;;;;;;10348218;28;20757;-35
2022/09/23 14:05:40;;;;;;;13.88;7.55;;;21.20;64.30;;;;;;10349812;28;20049;-35
2022/09/23 14:10:44;;;;;;;10.00;4.85;;;20.90;70.00;;;;;;10351328;28;20124;-35
2022/09/23 14:15:48;;;;;;;16.30;8.30;;;21.30;68.40;;;;;;10350854;28;20092;-34
2022/09/23 14:20:51;;;;;;;8.15;4.03;;;21.10;66.90;;;;;;10353076;28;20092;-34
2022/09/23 14:25:54;;;;;;;4.55;1.63;;;20.60;67.80;;;;;;10350174;28;20141;-34
2022/09/23 14:30:57;;;;;;;9.75;6.10;;;21.90;62.40;;;;;;10349973;28;20147;-34
2022/09/23 14:36:07;;;;;;;8.27;5.25;;;21.60;65.80;;;;;;10349837;28;20042;-34
2022/09/23 14:41:20;;;;;;;4.18;1.30;;;22.10;62.80;;;;;;10351562;28;20072;-35
2022/09/23 14:46:24;;;;;;;2.30;1.30;;;22.40;60.50;;;;;;10352147;28;20406;-34
2022/09/23 14:51:32;;;;;;;4.55;2.85;;;22.50;60.30;;;;;;10352845;28;20141;-33
2022/09/23 14:56:42;;;;;;;2.90;2.25;;;22.00;63.00;;;;;;10352339;28;20077;-33
2022/09/23 15:01:43;;;;;;;16.70;9.05;;;20.60;68.90;;;;;;10352570;28;20137;-34
2022/09/23 15:06:50;;;;;;;14.18;6.32;;;18.40;86.00;;;;;;10353951;28;20050;-36
2022/09/23 15:11:56;;;;;;;7.07;3.35;;;18.40;86.70;;;;;;10348800;28;20045;-35
2022/09/23 15:16:59;;;;;;;6.47;3.72;;;18.90;80.40;;;;;;10357297;28;20064;-34
2022/09/23 15:22:02;;;;;;;3.38;2.15;;;17.90;87.10;;;;;;10359706;28;20224;-34
2022/09/23 15:27:25;;;;;;;3.58;1.80;;;17.90;83.30;;;;;;10357984;28;20050;-35
2022/09/23 15:32:27;;;;;;;2.95;1.80;;;18.90;79.40;;;;;;10360285;28;20048;-33
2022/09/23 15:37:31;;;;;;;3.92;1.55;;;20.50;72.20;;;;;;10359789;28;20054;-34
2022/09/23 15:42:32;;;;;;;7.72;2.28;;;20.80;70.60;;;;;;10358083;28;20045;-33
2022/09/23 15:47:36;;;;;;;4.70;2.13;;;20.10;74.00;;;;;;10357623;28;20147;-34
2022/09/23 15:52:40;;;;;;;3.88;1.70;;;20.20;73.70;;;;;;10358095;28;20136;-35
2022/09/23 15:57:42;;;;;;;3.88;1.90;;;20.60;72.20;;;;;;10358339;28;20042;-37
2022/09/23 16:02:46;;;;;;;7.15;1.77;;;21.90;66.70;;;;;;10356039;28;20054;-35
2022/09/23 16:07:51;;;;;;;4.95;2.00;;;21.90;66.60;;;;;;10354386;28;20045;-34
2022/09/23 16:12:55;;;;;;;3.95;1.95;;;22.50;65.00;;;;;;10356215;28;20371;-34
2022/09/23 16:17:57;;;;;;;6.18;2.00;;;22.60;64.50;;;;;;10355280;28;20049;-34
2022/09/23 16:23:02;;;;;;;6.03;1.60;;;22.60;64.50;;;;;;10356929;28;20153;-34
2022/09/23 16:28:05;;;;;;;2.45;1.88;;;22.70;64.10;;;;;;10348476;28;20150;-34
2022/09/23 16:33:06;;;;;;;5.72;1.75;;;22.70;63.90;;;;;;10351537;28;20037;-34
2022/09/23 16:38:09;;;;;;;3.90;1.60;;;22.70;64.00;;;;;;10351675;28;20139;-34
2022/09/23 16:43:11;;;;;;;6.78;1.75;;;22.70;64.10;;;;;;10354514;28;20683;-34
2022/09/23 16:48:18;;;;;;;4.18;1.45;;;22.80;64.30;;;;;;10356823;28;20148;-34
2022/09/23 16:53:22;;;;;;;3.92;1.23;;;22.80;64.60;;;;;;10355917;28;20061;-35
2022/09/23 16:58:23;;;;;;;4.45;1.23;;;22.80;64.70;;;;;;10354801;28;20045;-36
2022/09/23 17:03:41;;;;;;;3.53;1.88;;;22.80;65.00;;;;;;10355819;28;20056;-37
2022/09/23 17:08:47;;;;;;;4.18;1.98;;;22.70;65.00;;;;;;10350168;28;20100;-34
2022/09/23 17:13:49;;;;;;;6.50;2.83;;;22.70;63.80;;;;;;10353747;28;20056;-35
2022/09/23 17:18:54;;;;;;;7.65;2.90;;;22.70;63.60;;;;;;10354561;28;20045;-36
2022/09/23 17:23:58;;;;;;;4.55;2.58;;;22.60;63.40;;;;;;10350247;28;20057;-35
2022/09/23 17:29:00;;;;;;;5.80;2.30;;;22.60;63.30;;;;;;10349878;28;20149;-35
2022/09/23 17:34:04;;;;;;;4.93;1.98;;;22.60;63.30;;;;;;10354259;28;20084;-34
2022/09/23 17:39:07;;;;;;;4.75;2.22;;;22.60;63.40;;;;;;10353216;28;20054;-35
2022/09/23 17:44:10;;;;;;;4.78;1.70;;;22.60;63.10;;;;;;10352817;28;20184;-35
2022/09/23 17:49:11;;;;;;;7.30;3.83;;;22.60;63.00;;;;;;10353861;28;20148;-34
2022/09/23 17:54:15;;;;;;;6.53;3.83;;;22.30;67.30;;;;;;10353094;28;20061;-34
2022/09/23 17:59:17;;;;;;;6.82;3.05;;;17.90;86.20;;;;;;10351088;28;20104;-35
2022/09/23 18:04:19;;;;;;;9.13;3.80;;;18.00;87.00;;;;;;10352234;28;20088;-44
2022/09/23 18:09:22;;;;;;;8.45;3.20;;;18.90;83.90;;;;;;10348865;28;20077;-41
2022/09/23 18:14:25;;;;;;;8.90;3.53;;;21.20;71.60;;;;;;10351925;28;20733;-39
2022/09/23 18:19:26;;;;;;;9.25;5.13;;;20.30;76.40;;;;;;10349355;28;20149;-37
2022/09/23 18:24:31;;;;;;;7.53;4.63;;;18.20;84.90;;;;;;10351702;28;20038;-42
2022/09/23 18:29:34;;;;;;;7.47;4.20;;;18.00;84.30;;;;;;10351807;28;20042;-43
2022/09/23 18:34:35;;;;;;;11.10;4.38;;;17.70;85.20;;;;;;10351095;28;20050;-42
2022/09/23 18:39:39;;;;;;;10.50;4.85;;;18.00;83.40;;;;;;10351971;28;20042;-43
2022/09/23 18:44:41;;;;;;;11.48;5.03;;;18.40;82.10;;;;;;10347836;28;20144;-40
2022/09/23 18:55:05;;;;;;;8.38;4.88;;;18.60;82.00;;;;;;10358316;28;20117;-44
2022/09/23 19:00:09;;;;;;;7.07;4.30;;;18.40;81.20;;;;;;10359559;28;20042;-41
2022/09/23 19:05:11;;;;;;;6.38;3.88;;;18.30;82.00;;;;;;10358232;28;20064;-42
2022/09/23 19:10:14;;;;;;;4.78;3.65;;;18.90;79.70;;;;;;10358254;28;20053;-44
2022/09/23 19:15:16;;;;;;;8.65;4.55;;;19.80;75.10;;;;;;10357946;28;20057;-43
2022/09/23 19:20:19;;;;;;;7.40;5.40;;;19.60;75.10;;;;;;10357218;28;20497;-42
2022/09/23 19:25:22;;;;;;;7.57;4.20;;;19.80;74.40;;;;;;10355498;28;20054;-45
2022/09/23 19:30:24;;;;;;;6.63;4.75;;;19.40;75.40;;;;;;10357255;28;20061;-43
2022/09/23 19:35:28;;;;;;;6.70;5.18;;;20.10;72.60;;;;;;10354604;28;20050;-44
2022/09/23 19:40:31;;;;;;;5.40;4.00;;;19.30;76.40;;;;;;10353642;28;20098;-45
2022/09/23 19:45:33;;;;;;;5.85;4.28;;;19.40;75.80;;;;;;10355497;28;20045;-43
2022/09/23 19:50:37;;;;;;;6.18;3.88;;;19.80;73.20;;;;;;10357614;28;20050;-44
2022/09/23 19:55:41;;;;;;;5.45;3.95;;;19.40;75.70;;;;;;10352324;28;20628;-42
2022/09/23 20:00:43;;;;;;;6.35;4.38;;;20.20;71.00;;;;;;10351794;28;20077;-43
2022/09/23 20:05:53;;;;;;;;;;;20.80;68.70;;;;;;10352824;28;20144;-45
2022/09/23 20:10:56;;;;;;;5.40;3.67;;;19.80;72.90;;;;;;10350578;28;20071;-43
2022/09/23 20:15:58;;;;;;;5.53;3.05;;;20.10;72.00;;;;;;10353803;28;20050;-44
2022/09/23 20:21:00;;;;;;;7.03;3.65;;;21.20;67.90;;;;;;10338863;28;20445;-43
2022/09/23 20:31:25;;;;;;;7.90;2.80;;;20.80;68.80;;;;;;10358234;28;20129;-42
2022/09/23 20:36:28;;;;;;;4.25;2.75;;;21.60;65.80;;;;;;10356692;28;20641;-45
2022/09/23 20:41:35;;;;;;;3.85;2.42;;;21.60;65.80;;;;;;10357614;28;20132;-43
2022/09/23 20:46:37;;;;;;;7.13;2.88;;;21.40;66.60;;;;;;10358068;28;20050;-44
2022/09/23 20:51:40;;;;;;;6.32;2.95;;;20.90;68.60;;;;;;10356612;28;20573;-41
2022/09/23 20:56:43;;;;;;;6.82;2.78;;;21.00;67.90;;;;;;10355998;28;20145;-44
2022/09/23 21:01:45;;;;;;;7.15;4.63;;;21.30;67.00;;;;;;10357540;28;20183;-43
2022/09/23 21:06:48;;;;;;;6.60;3.42;;;20.70;69.10;;;;;;10354242;28;20052;-42
2022/09/23 21:11:51;;;;;;;9.40;4.35;;;20.40;70.80;;;;;;10354870;28;20053;-44
2022/09/23 21:16:53;;;;;;;7.00;4.28;;;21.00;68.60;;;;;;10351269;28;20675;-45
2022/09/23 21:21:55;;;;;;;;;;;20.60;69.30;;;;;;10353040;28;20145;-41
2022/09/23 21:26:58;;;;;;;6.57;4.80;;;20.30;71.00;;;;;;10354137;28;19928;-45
2022/09/23 21:32:00;;;;;;;8.98;5.93;;;20.00;73.70;;;;;;10352421;28;20052;-46
2022/09/23 21:37:02;;;;;;;9.35;7.32;;;20.30;71.00;;;;;;10353689;28;20085;-42
2022/09/23 21:42:05;;;;;;;5.35;2.90;;;21.00;68.20;;;;;;10352810;28;20045;-45
2022/09/23 21:47:07;;;;;;;9.57;6.75;;;21.00;68.20;;;;;;10331342;28;20057;-43
2022/09/23 21:52:09;;;;;;;14.73;8.07;;;20.90;68.90;;;;;;10354186;28;20143;-46
2022/09/23 21:57:14;;;;;;;12.65;8.50;;;20.10;73.30;;;;;;10353212;28;20133;-45
2022/09/23 22:02:16;;;;;;;3.40;2.08;;;20.50;70.50;;;;;;10352122;28;20038;-45
2022/09/23 22:07:18;;;;;;;6.63;2.65;;;20.50;70.10;;;;;;10355010;28;20108;-43
2022/09/23 22:12:22;;;;;;;12.75;6.28;;;20.50;69.50;;;;;;10352682;28;21370;-46
2022/09/23 22:17:24;;;;;;;3.92;2.58;;;20.60;71.00;;;;;;10353233;28;20080;-40
2022/09/23 22:22:26;;;;;;;8.80;5.57;;;20.00;72.20;;;;;;10353424;28;20096;-44
2022/09/23 22:27:29;;;;;;;4.10;2.60;;;20.00;71.60;;;;;;10367382;28;20050;-44
2022/09/23 22:32:47;;;;;;;7.20;5.15;;;21.00;67.60;;;;;;10363323;28;20802;-44
2022/09/23 22:37:49;;;;;;;8.63;4.28;;;20.10;71.10;;;;;;10363392;28;20166;-45
2022/09/23 22:42:53;;;;;;;4.03;3.10;;;19.90;73.40;;;;;;10366942;28;20052;-45
2022/09/23 22:47:54;;;;;;;6.40;4.68;;;19.90;71.60;;;;;;10364830;28;20049;-44
2022/09/23 22:52:57;;;;;;;4.90;2.47;;;19.50;73.00;;;;;;10363010;28;20081;-42
2022/09/23 22:58:00;;;;;;;4.03;3.22;;;20.20;70.90;;;;;;10362713;28;20046;-42
2022/09/23 23:03:02;;;;;;;5.28;2.75;;;20.10;71.20;;;;;;10364942;28;20050;-43
2022/09/23 23:08:04;;;;;;;7.35;5.38;;;20.30;70.30;;;;;;10366170;28;21301;-44
2022/09/23 23:13:07;;;;;;;3.33;2.25;;;19.80;74.40;;;;;;10367382;28;20073;-46
2022/09/23 23:18:09;;;;;;;3.50;2.88;;;20.00;71.10;;;;;;10366362;28;20147;-44
2022/09/23 23:23:11;;;;;;;5.13;2.90;;;20.20;70.50;;;;;;10367401;28;20050;-45
2022/09/23 23:28:14;;;;;;;4.57;2.97;;;20.30;69.70;;;;;;10366116;28;20505;-44
2022/09/23 23:33:16;;;;;;;7.65;4.03;;;20.50;68.80;;;;;;10366281;28;20132;-47
2022/09/23 23:38:17;;;;;;;11.93;5.10;;;19.90;70.80;;;;;;10358557;28;20042;-45
2022/09/23 23:43:21;;;;;;;5.32;3.72;;;19.60;73.30;;;;;;10359789;28;20088;-44
2022/09/23 23:48:23;;;;;;;4.10;2.85;;;20.10;70.80;;;;;;10359010;28;20144;-44
2022/09/23 23:53:28;;;;;;;2.40;1.98;;;20.60;67.80;;;;;;10358909;28;20141;-45
2022/09/23 23:58:31;;;;;;;3.53;2.17;;;21.00;66.60;;;;;;10359451;28;20055;-43
